PWSweather.com
Personal Weather Stations
Station Observations

Tucson, AZ 85750

Lat: 32.31347, Lon: -110.825248

Elevation: 2745

Station Type: Davis Vantage Pro

http://www.cfsd16.org/schools/espererocanyon/weather_tracker.html

Latest ConditionsUpdated 5:25:17 PM MST Friday, Feb 27, 2015
Currently Today's Max Today's Min Today's Average
Temperature 71.8°F22.1°C 75.7°F24.3°C 47.7°F8.7°C 60.9°F16.1°C
Dew Point 32.0°F0.0°C 33.1°F0.6°C 24.8°F-4.0°C 28.4°F-2.0°C
Winds 3.0 mph WSW4.8 kmh WSW 8.0 mph SW12.9 kmh SW - 1.0 mph 1.6 kmh
Wind Gusts -- -- - -
Humidity 23% 47% 17% 31%
Pressure 29.57 in1001.4 mb 29.75 in1007.5 mb 29.57 in1001.4 mb -
Hour Temp Dew Point Humidity Winds Wind Gusts Pressure Precip Precip Rate Daily Precip Total
05:25 PM 71.8°F22.1°C 32.0°F0.0°C 23% 3.0 mph WSW4.8 kmh WSW -- 29.57 in1001.4 mb 0.00 in0.0 mm 0.00 in/hr0.0 mm/hr 0.00 in0.0 mm
05:20 PM 72.0°F22.2°C 31.1°F-0.5°C 22% 2.0 mph SW3.2 kmh SW -- 29.58 in1001.7 mb 0.00 in0.0 mm 0.00 in/hr0.0 mm/hr 0.00 in0.0 mm
05:15 PM 72.1°F22.3°C 31.2°F-0.4°C 22% 1.0 mph WSW1.6 kmh WSW -- 29.57 in1001.4 mb 0.00 in0.0 mm 0.00 in/hr0.0 mm/hr 0.00 in0.0 mm
05:10 PM 72.2°F22.3°C 30.1°F-1.1°C 21% 6.0 mph W9.7 kmh W -- 29.57 in1001.4 mb 0.00 in0.0 mm 0.00 in/hr0.0 mm/hr 0.00 in0.0 mm
05:05 PM 72.4°F22.4°C 30.3°F-0.9°C 21% 3.0 mph S4.8 kmh S -- 29.57 in1001.4 mb 0.00 in0.0 mm 0.00 in/hr0.0 mm/hr 0.00 in0.0 mm
05:00 PM 72.5°F22.5°C 30.3°F-0.9°C 21% 1.0 mph WSW1.6 kmh WSW -- 29.57 in1001.4 mb 0.00 in0.0 mm 0.00 in/hr0.0 mm/hr 0.00 in0.0 mm
04:55 PM 72.7°F22.6°C 29.3°F-1.5°C 20% 4.0 mph SW6.4 kmh SW -- 29.57 in1001.4 mb 0.00 in0.0 mm 0.00 in/hr0.0 mm/hr 0.00 in0.0 mm
04:50 PM 72.9°F22.7°C 29.5°F-1.4°C 20% 2.0 mph WSW3.2 kmh WSW -- 29.57 in1001.4 mb 0.00 in0.0 mm 0.00 in/hr0.0 mm/hr 0.00 in0.0 mm
04:45 PM 73.1°F22.8°C 29.6°F-1.3°C 20% 3.0 mph SW4.8 kmh SW -- 29.57 in1001.4 mb 0.00 in0.0 mm 0.00 in/hr0.0 mm/hr 0.00 in0.0 mm
04:40 PM 73.4°F23.0°C 28.6°F-1.9°C 19% 3.0 mph SW4.8 kmh SW -- 29.57 in1001.4 mb 0.00 in0.0 mm 0.00 in/hr0.0 mm/hr 0.00 in0.0 mm
04:35 PM 73.5°F23.1°C 28.7°F-1.8°C 19% 1.0 mph WSW1.6 kmh WSW -- 29.57 in1001.4 mb 0.00 in0.0 mm 0.00 in/hr0.0 mm/hr 0.00 in0.0 mm
04:30 PM 73.7°F23.2°C 28.9°F-1.7°C 19% 4.0 mph WSW6.4 kmh WSW -- 29.57 in1001.4 mb 0.00 in0.0 mm 0.00 in/hr0.0 mm/hr 0.00 in0.0 mm
04:25 PM 73.8°F23.2°C 29.0°F-1.7°C 19% 1.0 mph SW1.6 kmh SW -- 29.57 in1001.4 mb 0.00 in0.0 mm 0.00 in/hr0.0 mm/hr 0.00 in0.0 mm
04:20 PM 74.1°F23.4°C 29.2°F-1.6°C 19% 2.0 mph WSW3.2 kmh WSW -- 29.57 in1001.4 mb 0.00 in0.0 mm 0.00 in/hr0.0 mm/hr 0.00 in0.0 mm
04:15 PM 74.3°F23.5°C 28.0°F-2.2°C 18% 3.0 mph SSW4.8 kmh SSW -- 29.57 in1001.4 mb 0.00 in0.0 mm 0.00 in/hr0.0 mm/hr 0.00 in0.0 mm
04:10 PM 74.4°F23.6°C 28.1°F-2.2°C 18% 3.0 mph SW4.8 kmh SW -- 29.57 in1001.4 mb 0.00 in0.0 mm 0.00 in/hr0.0 mm/hr 0.00 in0.0 mm
04:05 PM 74.5°F23.6°C 29.5°F-1.4°C 19% Calm Calm -- 29.58 in1001.7 mb 0.00 in0.0 mm 0.00 in/hr0.0 mm/hr 0.00 in0.0 mm
04:00 PM 74.7°F23.7°C 28.4°F-2.0°C 18% 2.0 mph WSW3.2 kmh WSW -- 29.58 in1001.7 mb 0.00 in0.0 mm 0.00 in/hr0.0 mm/hr 0.00 in0.0 mm
03:55 PM 74.8°F23.8°C 28.5°F-1.9°C 18% 2.0 mph SW3.2 kmh SW -- 29.58 in1001.7 mb 0.00 in0.0 mm 0.00 in/hr0.0 mm/hr 0.00 in0.0 mm
03:50 PM 74.9°F23.8°C 28.5°F-1.9°C 18% 8.0 mph SW12.9 kmh SW -- 29.58 in1001.7 mb 0.00 in0.0 mm 0.00 in/hr0.0 mm/hr 0.00 in0.0 mm
03:45 PM 75.0°F23.9°C 28.6°F-1.9°C 18% 4.0 mph SSW6.4 kmh SSW -- 29.58 in1001.7 mb 0.00 in0.0 mm 0.00 in/hr0.0 mm/hr 0.00 in0.0 mm
03:40 PM 74.9°F23.8°C 28.5°F-1.9°C 18% 1.0 mph SW1.6 kmh SW -- 29.58 in1001.7 mb 0.00 in0.0 mm 0.00 in/hr0.0 mm/hr 0.00 in0.0 mm
03:35 PM 74.9°F23.8°C 28.5°F-1.9°C 18% 3.0 mph SW4.8 kmh SW -- 29.58 in1001.7 mb 0.00 in0.0 mm 0.00 in/hr0.0 mm/hr 0.00 in0.0 mm
03:30 PM 75.1°F23.9°C 27.3°F-2.6°C 17% 7.0 mph SW11.3 kmh SW -- 29.59 in1002.0 mb 0.00 in0.0 mm 0.00 in/hr0.0 mm/hr 0.00 in0.0 mm
03:25 PM 75.2°F24.0°C 27.4°F-2.6°C 17% 3.0 mph WSW4.8 kmh WSW -- 29.59 in1002.0 mb 0.00 in0.0 mm 0.00 in/hr0.0 mm/hr 0.00 in0.0 mm
03:20 PM 75.3°F24.1°C 27.5°F-2.5°C 17% 5.0 mph W8.0 kmh W -- 29.59 in1002.0 mb 0.00 in0.0 mm 0.00 in/hr0.0 mm/hr 0.00 in0.0 mm
03:15 PM 75.2°F24.0°C 27.4°F-2.6°C 17% 2.0 mph WSW3.2 kmh WSW -- 29.59 in1002.0 mb 0.00 in0.0 mm 0.00 in/hr0.0 mm/hr 0.00 in0.0 mm
03:10 PM 75.3°F24.1°C 27.5°F-2.5°C 17% 5.0 mph SSW8.0 kmh SSW -- 29.59 in1002.0 mb 0.00 in0.0 mm 0.00 in/hr0.0 mm/hr 0.00 in0.0 mm
03:05 PM 75.3°F24.1°C 28.9°F-1.7°C 18% 4.0 mph SW6.4 kmh SW -- 29.59 in1002.0 mb 0.00 in0.0 mm 0.00 in/hr0.0 mm/hr 0.00 in0.0 mm
03:00 PM 75.3°F24.1°C 28.9°F-1.7°C 18% 4.0 mph SW6.4 kmh SW -- 29.59 in1002.0 mb 0.00 in0.0 mm 0.00 in/hr0.0 mm/hr 0.00 in0.0 mm
02:55 PM 75.3°F24.1°C 27.5°F-2.5°C 17% 1.0 mph SW1.6 kmh SW -- 29.59 in1002.0 mb 0.00 in0.0 mm 0.00 in/hr0.0 mm/hr 0.00 in0.0 mm
02:50 PM 75.3°F24.1°C 27.5°F-2.5°C 17% 5.0 mph W8.0 kmh W -- 29.59 in1002.0 mb 0.00 in0.0 mm 0.00 in/hr0.0 mm/hr 0.00 in0.0 mm
02:45 PM 75.4°F24.1°C 28.9°F-1.7°C 18% 2.0 mph WSW3.2 kmh WSW -- 29.59 in1002.0 mb 0.00 in0.0 mm 0.00 in/hr0.0 mm/hr 0.00 in0.0 mm
02:40 PM 75.5°F24.2°C 27.6°F-2.4°C 17% 3.0 mph W4.8 kmh W -- 29.59 in1002.0 mb 0.00 in0.0 mm 0.00 in/hr0.0 mm/hr 0.00 in0.0 mm
02:35 PM 75.4°F24.1°C 28.9°F-1.7°C 18% 2.0 mph W3.2 kmh W -- 29.60 in1002.4 mb 0.00 in0.0 mm 0.00 in/hr0.0 mm/hr 0.00 in0.0 mm
02:30 PM 75.4°F24.1°C 28.9°F-1.7°C 18% 7.0 mph WNW11.3 kmh WNW -- 29.60 in1002.4 mb 0.00 in0.0 mm 0.00 in/hr0.0 mm/hr 0.00 in0.0 mm
02:25 PM 75.6°F24.2°C 27.7°F-2.4°C 17% 2.0 mph W3.2 kmh W -- 29.60 in1002.4 mb 0.00 in0.0 mm 0.00 in/hr0.0 mm/hr 0.00 in0.0 mm
02:20 PM 75.6°F24.2°C 27.7°F-2.4°C 17% 1.0 mph WSW1.6 kmh WSW -- 29.61 in1002.7 mb 0.00 in0.0 mm 0.00 in/hr0.0 mm/hr 0.00 in0.0 mm
02:15 PM 75.7°F24.3°C 27.8°F-2.3°C 17% 2.0 mph W3.2 kmh W -- 29.61 in1002.7 mb 0.00 in0.0 mm 0.00 in/hr0.0 mm/hr 0.00 in0.0 mm
02:10 PM 75.6°F24.2°C 27.7°F-2.4°C 17% 6.0 mph WNW9.7 kmh WNW -- 29.61 in1002.7 mb 0.00 in0.0 mm 0.00 in/hr0.0 mm/hr 0.00 in0.0 mm
02:05 PM 75.4°F24.1°C 28.9°F-1.7°C 18% 4.0 mph SW6.4 kmh SW -- 29.61 in1002.7 mb 0.00 in0.0 mm 0.00 in/hr0.0 mm/hr 0.00 in0.0 mm
02:00 PM 75.2°F24.0°C 27.4°F-2.6°C 17% 4.0 mph W6.4 kmh W -- 29.61 in1002.7 mb 0.00 in0.0 mm 0.00 in/hr0.0 mm/hr 0.00 in0.0 mm
01:55 PM 75.3°F24.1°C 27.5°F-2.5°C 17% 2.0 mph SSW3.2 kmh SSW -- 29.61 in1002.7 mb 0.00 in0.0 mm 0.00 in/hr0.0 mm/hr 0.00 in0.0 mm
01:50 PM 75.3°F24.1°C 27.5°F-2.5°C 17% 4.0 mph SW6.4 kmh SW -- 29.62 in1003.0 mb 0.00 in0.0 mm 0.00 in/hr0.0 mm/hr 0.00 in0.0 mm
01:45 PM 75.4°F24.1°C 27.5°F-2.5°C 17% 2.0 mph SW3.2 kmh SW -- 29.62 in1003.0 mb 0.00 in0.0 mm 0.00 in/hr0.0 mm/hr 0.00 in0.0 mm
01:40 PM 75.4°F24.1°C 28.9°F-1.7°C 18% Calm Calm -- 29.62 in1003.0 mb 0.00 in0.0 mm 0.00 in/hr0.0 mm/hr 0.00 in0.0 mm
01:35 PM 75.2°F24.0°C 30.1°F-1.1°C 19% 5.0 mph SE8.0 kmh SE -- 29.62 in1003.0 mb 0.00 in0.0 mm 0.00 in/hr0.0 mm/hr 0.00 in0.0 mm
01:30 PM 74.9°F23.8°C 31.1°F-0.5°C 20% 2.0 mph WNW3.2 kmh WNW -- 29.62 in1003.0 mb 0.00 in0.0 mm 0.00 in/hr0.0 mm/hr 0.00 in0.0 mm
01:25 PM 74.8°F23.8°C 32.2°F0.1°C 21% Calm Calm -- 29.63 in1003.4 mb 0.00 in0.0 mm 0.00 in/hr0.0 mm/hr 0.00 in0.0 mm
01:20 PM 74.6°F23.7°C 30.9°F-0.6°C 20% Calm Calm -- 29.63 in1003.4 mb 0.00 in0.0 mm 0.00 in/hr0.0 mm/hr 0.00 in0.0 mm
01:15 PM 74.7°F23.7°C 32.2°F0.1°C 21% 5.0 mph SSW8.0 kmh SSW -- 29.64 in1003.7 mb 0.00 in0.0 mm 0.00 in/hr0.0 mm/hr 0.00 in0.0 mm
01:10 PM 74.4°F23.6°C 33.1°F0.6°C 22% 1.0 mph NW1.6 kmh NW -- 29.64 in1003.7 mb 0.00 in0.0 mm 0.00 in/hr0.0 mm/hr 0.00 in0.0 mm
01:05 PM 74.0°F23.3°C 31.6°F-0.2°C 21% Calm Calm -- 29.64 in1003.7 mb 0.00 in0.0 mm 0.00 in/hr0.0 mm/hr 0.00 in0.0 mm
01:00 PM 73.7°F23.2°C 31.3°F-0.4°C 21% Calm Calm -- 29.64 in1003.7 mb 0.00 in0.0 mm 0.00 in/hr0.0 mm/hr 0.00 in0.0 mm
12:55 PM 73.6°F23.1°C 30.0°F-1.1°C 20% Calm Calm -- 29.64 in1003.7 mb 0.00 in0.0 mm 0.00 in/hr0.0 mm/hr 0.00 in0.0 mm
12:50 PM 73.7°F23.2°C 31.3°F-0.4°C 21% Calm Calm -- 29.65 in1004.1 mb 0.00 in0.0 mm 0.00 in/hr0.0 mm/hr 0.00 in0.0 mm
12:45 PM 73.4°F23.0°C 32.2°F0.1°C 22% 4.0 mph S6.4 kmh S -- 29.66 in1004.4 mb 0.00 in0.0 mm 0.00 in/hr0.0 mm/hr 0.00 in0.0 mm
12:40 PM 72.9°F22.7°C 30.7°F-0.7°C 21% Calm Calm -- 29.66 in1004.4 mb 0.00 in0.0 mm 0.00 in/hr0.0 mm/hr 0.00 in0.0 mm
12:35 PM 72.8°F22.7°C 30.6°F-0.8°C 21% Calm Calm -- 29.67 in1004.7 mb 0.00 in0.0 mm 0.00 in/hr0.0 mm/hr 0.00 in0.0 mm
12:30 PM 72.3°F22.4°C 32.4°F0.2°C 23% 1.0 mph S1.6 kmh S -- 29.67 in1004.7 mb 0.00 in0.0 mm 0.00 in/hr0.0 mm/hr 0.00 in0.0 mm
12:25 PM 71.8°F22.1°C 30.9°F-0.6°C 22% Calm Calm -- 29.67 in1004.7 mb 0.00 in0.0 mm 0.00 in/hr0.0 mm/hr 0.00 in0.0 mm
12:20 PM 71.7°F22.1°C 30.8°F-0.7°C 22% Calm Calm -- 29.68 in1005.1 mb 0.00 in0.0 mm 0.00 in/hr0.0 mm/hr 0.00 in0.0 mm
12:15 PM 71.7°F22.1°C 29.7°F-1.3°C 21% Calm Calm -- 29.68 in1005.1 mb 0.00 in0.0 mm 0.00 in/hr0.0 mm/hr 0.00 in0.0 mm
12:10 PM 71.4°F21.9°C 30.6°F-0.8°C 22% Calm Calm -- 29.69 in1005.4 mb 0.00 in0.0 mm 0.00 in/hr0.0 mm/hr 0.00 in0.0 mm
12:05 PM 71.2°F21.8°C 30.4°F-0.9°C 22% 1.0 mph W1.6 kmh W -- 29.69 in1005.4 mb 0.00 in0.0 mm 0.00 in/hr0.0 mm/hr 0.00 in0.0 mm
12:00 PM 70.8°F21.6°C 31.2°F-0.4°C 23% Calm Calm -- 29.69 in1005.4 mb 0.00 in0.0 mm 0.00 in/hr0.0 mm/hr 0.00 in0.0 mm
11:55 AM 70.4°F21.3°C 29.7°F-1.3°C 22% 2.0 mph W3.2 kmh W -- 29.70 in1005.8 mb 0.00 in0.0 mm 0.00 in/hr0.0 mm/hr 0.00 in0.0 mm
11:50 AM 70.3°F21.3°C 29.7°F-1.3°C 22% 5.0 mph SE8.0 kmh SE -- 29.70 in1005.8 mb 0.00 in0.0 mm 0.00 in/hr0.0 mm/hr 0.00 in0.0 mm
11:45 AM 70.1°F21.2°C 30.6°F-0.8°C 23% Calm Calm -- 29.70 in1005.8 mb 0.00 in0.0 mm 0.00 in/hr0.0 mm/hr 0.00 in0.0 mm
11:40 AM 70.1°F21.2°C 29.5°F-1.4°C 22% Calm Calm -- 29.70 in1005.8 mb 0.00 in0.0 mm 0.00 in/hr0.0 mm/hr 0.00 in0.0 mm
11:35 AM 70.0°F21.1°C 30.5°F-0.8°C 23% Calm Calm -- 29.70 in1005.8 mb 0.00 in0.0 mm 0.00 in/hr0.0 mm/hr 0.00 in0.0 mm
11:30 AM 69.8°F21.0°C 30.3°F-0.9°C 23% Calm Calm -- 29.71 in1006.1 mb 0.00 in0.0 mm 0.00 in/hr0.0 mm/hr 0.00 in0.0 mm
11:25 AM 69.7°F20.9°C 30.2°F-1.0°C 23% 1.0 mph SSW1.6 kmh SSW -- 29.71 in1006.1 mb 0.00 in0.0 mm 0.00 in/hr0.0 mm/hr 0.00 in0.0 mm
11:20 AM 69.5°F20.8°C 31.1°F-0.5°C 24% Calm Calm -- 29.71 in1006.1 mb 0.00 in0.0 mm 0.00 in/hr0.0 mm/hr 0.00 in0.0 mm
11:15 AM 69.2°F20.7°C 29.8°F-1.2°C 23% 2.0 mph SE3.2 kmh SE -- 29.71 in1006.1 mb 0.00 in0.0 mm 0.00 in/hr0.0 mm/hr 0.00 in0.0 mm
11:10 AM 69.0°F20.6°C 29.7°F-1.3°C 23% Calm Calm -- 29.71 in1006.1 mb 0.00 in0.0 mm 0.00 in/hr0.0 mm/hr 0.00 in0.0 mm
11:05 AM 68.9°F20.5°C 29.6°F-1.3°C 23% 1.0 mph W1.6 kmh W -- 29.72 in1006.4 mb 0.00 in0.0 mm 0.00 in/hr0.0 mm/hr 0.00 in0.0 mm
11:00 AM 68.7°F20.4°C 29.4°F-1.4°C 23% Calm Calm -- 29.72 in1006.4 mb 0.00 in0.0 mm 0.00 in/hr0.0 mm/hr 0.00 in0.0 mm
10:55 AM 68.4°F20.2°C 30.2°F-1.0°C 24% Calm Calm -- 29.72 in1006.4 mb 0.00 in0.0 mm 0.00 in/hr0.0 mm/hr 0.00 in0.0 mm
10:50 AM 68.2°F20.1°C 29.0°F-1.7°C 23% Calm Calm -- 29.73 in1006.8 mb 0.00 in0.0 mm 0.00 in/hr0.0 mm/hr 0.00 in0.0 mm
10:45 AM 67.9°F19.9°C 29.8°F-1.2°C 24% 2.0 mph SW3.2 kmh SW -- 29.72 in1006.4 mb 0.00 in0.0 mm 0.00 in/hr0.0 mm/hr 0.00 in0.0 mm
10:40 AM 67.4°F19.7°C 29.4°F-1.4°C 24% Calm Calm -- 29.72 in1006.4 mb 0.00 in0.0 mm 0.00 in/hr0.0 mm/hr 0.00 in0.0 mm
10:35 AM 67.1°F19.5°C 29.1°F-1.6°C 24% Calm Calm -- 29.72 in1006.4 mb 0.00 in0.0 mm 0.00 in/hr0.0 mm/hr 0.00 in0.0 mm
10:30 AM 66.9°F19.4°C 28.9°F-1.7°C 24% Calm Calm -- 29.72 in1006.4 mb 0.00 in0.0 mm 0.00 in/hr0.0 mm/hr 0.00 in0.0 mm
10:25 AM 66.8°F19.3°C 28.8°F-1.8°C 24% 2.0 mph W3.2 kmh W -- 29.72 in1006.4 mb 0.00 in0.0 mm 0.00 in/hr0.0 mm/hr 0.00 in0.0 mm
10:20 AM 66.7°F19.3°C 28.8°F-1.8°C 24% 4.0 mph WNW6.4 kmh WNW -- 29.73 in1006.8 mb 0.00 in0.0 mm 0.00 in/hr0.0 mm/hr 0.00 in0.0 mm
10:15 AM 66.3°F19.1°C 27.4°F-2.6°C 23% Calm Calm -- 29.73 in1006.8 mb 0.00 in0.0 mm 0.00 in/hr0.0 mm/hr 0.00 in0.0 mm
10:10 AM 66.1°F18.9°C 26.2°F-3.2°C 22% Calm Calm -- 29.72 in1006.4 mb 0.00 in0.0 mm 0.00 in/hr0.0 mm/hr 0.00 in0.0 mm
10:05 AM 65.8°F18.8°C 27.0°F-2.8°C 23% Calm Calm -- 29.73 in1006.8 mb 0.00 in0.0 mm 0.00 in/hr0.0 mm/hr 0.00 in0.0 mm
10:00 AM 65.2°F18.4°C 27.5°F-2.5°C 24% Calm Calm -- 29.73 in1006.8 mb 0.00 in0.0 mm 0.00 in/hr0.0 mm/hr 0.00 in0.0 mm
09:55 AM 64.5°F18.1°C 27.9°F-2.3°C 25% Calm Calm -- 29.72 in1006.4 mb 0.00 in0.0 mm 0.00 in/hr0.0 mm/hr 0.00 in0.0 mm
09:50 AM 63.9°F17.7°C 27.4°F-2.6°C 25% Calm Calm -- 29.72 in1006.4 mb 0.00 in0.0 mm 0.00 in/hr0.0 mm/hr 0.00 in0.0 mm
09:45 AM 63.3°F17.4°C 29.6°F-1.3°C 28% Calm Calm -- 29.72 in1006.4 mb 0.00 in0.0 mm 0.00 in/hr0.0 mm/hr 0.00 in0.0 mm
09:40 AM 62.6°F17.0°C 29.0°F-1.7°C 28% 1.0 mph SE1.6 kmh SE -- 29.72 in1006.4 mb 0.00 in0.0 mm 0.00 in/hr0.0 mm/hr 0.00 in0.0 mm
09:35 AM 61.9°F16.6°C 29.3°F-1.5°C 29% Calm Calm -- 29.71 in1006.1 mb 0.00 in0.0 mm 0.00 in/hr0.0 mm/hr 0.00 in0.0 mm
09:30 AM 61.2°F16.2°C 28.7°F-1.8°C 29% Calm Calm -- 29.71 in1006.1 mb 0.00 in0.0 mm 0.00 in/hr0.0 mm/hr 0.00 in0.0 mm
09:25 AM 60.7°F15.9°C 28.3°F-2.1°C 29% Calm Calm -- 29.72 in1006.4 mb 0.00 in0.0 mm 0.00 in/hr0.0 mm/hr 0.00 in0.0 mm
09:20 AM 60.2°F15.7°C 28.7°F-1.8°C 30% Calm Calm -- 29.72 in1006.4 mb 0.00 in0.0 mm 0.00 in/hr0.0 mm/hr 0.00 in0.0 mm
09:15 AM 59.6°F15.3°C 28.9°F-1.7°C 31% Calm Calm -- 29.71 in1006.1 mb 0.00 in0.0 mm 0.00 in/hr0.0 mm/hr 0.00 in0.0 mm
09:10 AM 59.0°F15.0°C 28.4°F-2.0°C 31% Calm Calm -- 29.72 in1006.4 mb 0.00 in0.0 mm 0.00 in/hr0.0 mm/hr 0.00 in0.0 mm
09:05 AM 58.4°F14.7°C 28.7°F-1.8°C 32% 2.0 mph SE3.2 kmh SE -- 29.72 in1006.4 mb 0.00 in0.0 mm 0.00 in/hr0.0 mm/hr 0.00 in0.0 mm
09:00 AM 57.9°F14.4°C 29.0°F-1.7°C 33% Calm Calm -- 29.73 in1006.8 mb 0.00 in0.0 mm 0.00 in/hr0.0 mm/hr 0.00 in0.0 mm
08:55 AM 57.4°F14.1°C 30.0°F-1.1°C 35% Calm Calm -- 29.73 in1006.8 mb 0.00 in0.0 mm 0.00 in/hr0.0 mm/hr 0.00 in0.0 mm
08:50 AM 57.2°F14.0°C 29.8°F-1.2°C 35% Calm Calm -- 29.72 in1006.4 mb 0.00 in0.0 mm 0.00 in/hr0.0 mm/hr 0.00 in0.0 mm
08:45 AM 57.0°F13.9°C 30.3°F-0.9°C 36% Calm Calm -- 29.72 in1006.4 mb 0.00 in0.0 mm 0.00 in/hr0.0 mm/hr 0.00 in0.0 mm
08:40 AM 57.0°F13.9°C 31.0°F-0.6°C 37% Calm Calm -- 29.73 in1006.8 mb 0.00 in0.0 mm 0.00 in/hr0.0 mm/hr 0.00 in0.0 mm
08:35 AM 57.4°F14.1°C 31.3°F-0.4°C 37% Calm Calm -- 29.73 in1006.8 mb 0.00 in0.0 mm 0.00 in/hr0.0 mm/hr 0.00 in0.0 mm
08:30 AM 58.1°F14.5°C 32.0°F0.0°C 37% Calm Calm -- 29.73 in1006.8 mb 0.00 in0.0 mm 0.00 in/hr0.0 mm/hr 0.00 in0.0 mm
08:25 AM 58.4°F14.7°C 30.9°F-0.6°C 35% 1.0 mph SE1.6 kmh SE -- 29.72 in1006.4 mb 0.00 in0.0 mm 0.00 in/hr0.0 mm/hr 0.00 in0.0 mm
08:20 AM 58.0°F14.4°C 29.8°F-1.2°C 34% 1.0 mph ESE1.6 kmh ESE -- 29.72 in1006.4 mb 0.00 in0.0 mm 0.00 in/hr0.0 mm/hr 0.00 in0.0 mm
08:15 AM 57.4°F14.1°C 27.8°F-2.3°C 32% Calm Calm -- 29.72 in1006.4 mb 0.00 in0.0 mm 0.00 in/hr0.0 mm/hr 0.00 in0.0 mm
08:10 AM 56.9°F13.8°C 26.6°F-3.0°C 31% Calm Calm -- 29.72 in1006.4 mb 0.00 in0.0 mm 0.00 in/hr0.0 mm/hr 0.00 in0.0 mm
08:05 AM 56.5°F13.6°C 27.0°F-2.8°C 32% Calm Calm -- 29.72 in1006.4 mb 0.00 in0.0 mm 0.00 in/hr0.0 mm/hr 0.00 in0.0 mm
08:00 AM 56.2°F13.4°C 26.7°F-2.9°C 32% Calm Calm -- 29.72 in1006.4 mb 0.00 in0.0 mm 0.00 in/hr0.0 mm/hr 0.00 in0.0 mm
07:55 AM 55.8°F13.2°C 26.4°F-3.1°C 32% Calm Calm -- 29.72 in1006.4 mb 0.00 in0.0 mm 0.00 in/hr0.0 mm/hr 0.00 in0.0 mm
07:50 AM 55.4°F13.0°C 26.0°F-3.3°C 32% 1.0 mph ENE1.6 kmh ENE -- 29.72 in1006.4 mb 0.00 in0.0 mm 0.00 in/hr0.0 mm/hr 0.00 in0.0 mm
07:45 AM 55.0°F12.8°C 25.7°F-3.5°C 32% Calm Calm -- 29.72 in1006.4 mb 0.00 in0.0 mm 0.00 in/hr0.0 mm/hr 0.00 in0.0 mm
07:40 AM 54.6°F12.6°C 26.1°F-3.3°C 33% Calm Calm -- 29.72 in1006.4 mb 0.00 in0.0 mm 0.00 in/hr0.0 mm/hr 0.00 in0.0 mm
07:35 AM 54.2°F12.3°C 25.7°F-3.5°C 33% Calm Calm -- 29.72 in1006.4 mb 0.00 in0.0 mm 0.00 in/hr0.0 mm/hr 0.00 in0.0 mm
07:30 AM 53.9°F12.2°C 25.5°F-3.6°C 33% 2.0 mph NE3.2 kmh NE -- 29.72 in1006.4 mb 0.00 in0.0 mm 0.00 in/hr0.0 mm/hr 0.00 in0.0 mm
07:25 AM 53.7°F12.1°C 25.3°F-3.7°C 33% 4.0 mph NE6.4 kmh NE -- 29.72 in1006.4 mb 0.00 in0.0 mm 0.00 in/hr0.0 mm/hr 0.00 in0.0 mm
07:20 AM 53.5°F11.9°C 25.8°F-3.4°C 34% Calm Calm -- 29.72 in1006.4 mb 0.00 in0.0 mm 0.00 in/hr0.0 mm/hr 0.00 in0.0 mm
07:15 AM 53.5°F11.9°C 25.1°F-3.8°C 33% Calm Calm -- 29.72 in1006.4 mb 0.00 in0.0 mm 0.00 in/hr0.0 mm/hr 0.00 in0.0 mm
07:10 AM 53.3°F11.8°C 25.7°F-3.5°C 34% 2.0 mph NE3.2 kmh NE -- 29.72 in1006.4 mb 0.00 in0.0 mm 0.00 in/hr0.0 mm/hr 0.00 in0.0 mm
07:05 AM 53.3°F11.8°C 25.7°F-3.5°C 34% 1.0 mph NNE1.6 kmh NNE -- 29.72 in1006.4 mb 0.00 in0.0 mm 0.00 in/hr0.0 mm/hr 0.00 in0.0 mm
07:00 AM 53.2°F11.8°C 25.6°F-3.6°C 34% 4.0 mph NNE6.4 kmh NNE -- 29.72 in1006.4 mb 0.00 in0.0 mm 0.00 in/hr0.0 mm/hr 0.00 in0.0 mm
06:55 AM 53.1°F11.7°C 25.5°F-3.6°C 34% Calm Calm -- 29.72 in1006.4 mb 0.00 in0.0 mm 0.00 in/hr0.0 mm/hr 0.00 in0.0 mm
06:50 AM 53.0°F11.7°C 25.4°F-3.7°C 34% 2.0 mph NE3.2 kmh NE -- 29.72 in1006.4 mb 0.00 in0.0 mm 0.00 in/hr0.0 mm/hr 0.00 in0.0 mm
06:45 AM 53.0°F11.7°C 25.4°F-3.7°C 34% 1.0 mph NE1.6 kmh NE -- 29.72 in1006.4 mb 0.00 in0.0 mm 0.00 in/hr0.0 mm/hr 0.00 in0.0 mm
06:40 AM 53.1°F11.7°C 25.5°F-3.6°C 34% Calm Calm -- 29.71 in1006.1 mb 0.00 in0.0 mm 0.00 in/hr0.0 mm/hr 0.00 in0.0 mm
06:35 AM 53.1°F11.7°C 25.5°F-3.6°C 34% 1.0 mph N1.6 kmh N -- 29.71 in1006.1 mb 0.00 in0.0 mm 0.00 in/hr0.0 mm/hr 0.00 in0.0 mm
06:30 AM 53.1°F11.7°C 25.5°F-3.6°C 34% Calm Calm -- 29.71 in1006.1 mb 0.00 in0.0 mm 0.00 in/hr0.0 mm/hr 0.00 in0.0 mm
06:25 AM 53.2°F11.8°C 25.6°F-3.6°C 34% Calm Calm -- 29.71 in1006.1 mb 0.00 in0.0 mm 0.00 in/hr0.0 mm/hr 0.00 in0.0 mm
06:20 AM 53.2°F11.8°C 24.9°F-3.9°C 33% Calm Calm -- 29.71 in1006.1 mb 0.00 in0.0 mm 0.00 in/hr0.0 mm/hr 0.00 in0.0 mm
06:15 AM 53.2°F11.8°C 24.9°F-3.9°C 33% Calm Calm -- 29.71 in1006.1 mb 0.00 in0.0 mm 0.00 in/hr0.0 mm/hr 0.00 in0.0 mm
06:10 AM 53.2°F11.8°C 24.9°F-3.9°C 33% Calm Calm -- 29.71 in1006.1 mb 0.00 in0.0 mm 0.00 in/hr0.0 mm/hr 0.00 in0.0 mm
06:05 AM 53.1°F11.7°C 24.8°F-4.0°C 33% 1.0 mph NE1.6 kmh NE -- 29.71 in1006.1 mb 0.00 in0.0 mm 0.00 in/hr0.0 mm/hr 0.00 in0.0 mm
06:00 AM 53.0°F11.7°C 25.4°F-3.7°C 34% Calm Calm -- 29.71 in1006.1 mb 0.00 in0.0 mm 0.00 in/hr0.0 mm/hr 0.00 in0.0 mm
05:55 AM 52.8°F11.6°C 25.2°F-3.8°C 34% 2.0 mph NNE3.2 kmh NNE -- 29.72 in1006.4 mb 0.00 in0.0 mm 0.00 in/hr0.0 mm/hr 0.00 in0.0 mm
05:50 AM 52.6°F11.4°C 25.0°F-3.9°C 34% Calm Calm -- 29.72 in1006.4 mb 0.00 in0.0 mm 0.00 in/hr0.0 mm/hr 0.00 in0.0 mm
05:45 AM 52.4°F11.3°C 25.6°F-3.6°C 35% Calm Calm -- 29.72 in1006.4 mb 0.00 in0.0 mm 0.00 in/hr0.0 mm/hr 0.00 in0.0 mm
05:40 AM 52.1°F11.2°C 25.3°F-3.7°C 35% Calm Calm -- 29.72 in1006.4 mb 0.00 in0.0 mm 0.00 in/hr0.0 mm/hr 0.00 in0.0 mm
05:35 AM 51.8°F11.0°C 25.7°F-3.5°C 36% Calm Calm -- 29.72 in1006.4 mb 0.00 in0.0 mm 0.00 in/hr0.0 mm/hr 0.00 in0.0 mm
05:30 AM 51.4°F10.8°C 25.4°F-3.7°C 36% Calm Calm -- 29.72 in1006.4 mb 0.00 in0.0 mm 0.00 in/hr0.0 mm/hr 0.00 in0.0 mm
05:25 AM 51.0°F10.6°C 25.7°F-3.5°C 37% 1.0 mph NNE1.6 kmh NNE -- 29.72 in1006.4 mb 0.00 in0.0 mm 0.00 in/hr0.0 mm/hr 0.00 in0.0 mm
05:20 AM 50.6°F10.3°C 25.3°F-3.7°C 37% Calm Calm -- 29.72 in1006.4 mb 0.00 in0.0 mm 0.00 in/hr0.0 mm/hr 0.00 in0.0 mm
05:15 AM 50.2°F10.1°C 25.6°F-3.6°C 38% Calm Calm -- 29.72 in1006.4 mb 0.00 in0.0 mm 0.00 in/hr0.0 mm/hr 0.00 in0.0 mm
05:10 AM 49.9°F9.9°C 25.9°F-3.4°C 39% Calm Calm -- 29.72 in1006.4 mb 0.00 in0.0 mm 0.00 in/hr0.0 mm/hr 0.00 in0.0 mm
05:05 AM 49.8°F9.9°C 25.8°F-3.4°C 39% 3.0 mph NNE4.8 kmh NNE -- 29.72 in1006.4 mb 0.00 in0.0 mm 0.00 in/hr0.0 mm/hr 0.00 in0.0 mm
05:00 AM 49.9°F9.9°C 26.5°F-3.1°C 40% Calm Calm -- 29.72 in1006.4 mb 0.00 in0.0 mm 0.00 in/hr0.0 mm/hr 0.00 in0.0 mm
04:55 AM 49.9°F9.9°C 27.7°F-2.4°C 42% Calm Calm -- 29.72 in1006.4 mb 0.00 in0.0 mm 0.00 in/hr0.0 mm/hr 0.00 in0.0 mm
04:50 AM 49.9°F9.9°C 27.7°F-2.4°C 42% Calm Calm -- 29.72 in1006.4 mb 0.00 in0.0 mm 0.00 in/hr0.0 mm/hr 0.00 in0.0 mm
04:45 AM 49.7°F9.8°C 27.0°F-2.8°C 41% Calm Calm -- 29.72 in1006.4 mb 0.00 in0.0 mm 0.00 in/hr0.0 mm/hr 0.00 in0.0 mm
04:40 AM 49.5°F9.7°C 26.8°F-2.9°C 41% Calm Calm -- 29.72 in1006.4 mb 0.00 in0.0 mm 0.00 in/hr0.0 mm/hr 0.00 in0.0 mm
04:35 AM 49.2°F9.6°C 26.5°F-3.1°C 41% Calm Calm -- 29.72 in1006.4 mb 0.00 in0.0 mm 0.00 in/hr0.0 mm/hr 0.00 in0.0 mm
04:30 AM 49.0°F9.4°C 26.9°F-2.8°C 42% Calm Calm -- 29.72 in1006.4 mb 0.00 in0.0 mm 0.00 in/hr0.0 mm/hr 0.00 in0.0 mm
04:25 AM 48.9°F9.4°C 26.8°F-2.9°C 42% Calm Calm -- 29.72 in1006.4 mb 0.00 in0.0 mm 0.00 in/hr0.0 mm/hr 0.00 in0.0 mm
04:20 AM 48.8°F9.3°C 26.7°F-2.9°C 42% Calm Calm -- 29.73 in1006.8 mb 0.00 in0.0 mm 0.00 in/hr0.0 mm/hr 0.00 in0.0 mm
04:15 AM 48.8°F9.3°C 27.3°F-2.6°C 43% Calm Calm -- 29.73 in1006.8 mb 0.00 in0.0 mm 0.00 in/hr0.0 mm/hr 0.00 in0.0 mm
04:10 AM 48.7°F9.3°C 27.2°F-2.7°C 43% Calm Calm -- 29.72 in1006.4 mb 0.00 in0.0 mm 0.00 in/hr0.0 mm/hr 0.00 in0.0 mm
04:05 AM 48.6°F9.2°C 27.7°F-2.4°C 44% Calm Calm -- 29.73 in1006.8 mb 0.00 in0.0 mm 0.00 in/hr0.0 mm/hr 0.00 in0.0 mm
04:00 AM 48.5°F9.2°C 27.6°F-2.4°C 44% Calm Calm -- 29.73 in1006.8 mb 0.00 in0.0 mm 0.00 in/hr0.0 mm/hr 0.00 in0.0 mm
03:55 AM 48.3°F9.1°C 27.4°F-2.6°C 44% Calm Calm -- 29.73 in1006.8 mb 0.00 in0.0 mm 0.00 in/hr0.0 mm/hr 0.00 in0.0 mm
03:50 AM 48.1°F8.9°C 27.8°F-2.3°C 45% Calm Calm -- 29.73 in1006.8 mb 0.00 in0.0 mm 0.00 in/hr0.0 mm/hr 0.00 in0.0 mm
03:45 AM 48.0°F8.9°C 27.7°F-2.4°C 45% Calm Calm -- 29.73 in1006.8 mb 0.00 in0.0 mm 0.00 in/hr0.0 mm/hr 0.00 in0.0 mm
03:40 AM 47.8°F8.8°C 27.5°F-2.5°C 45% Calm Calm -- 29.73 in1006.8 mb 0.00 in0.0 mm 0.00 in/hr0.0 mm/hr 0.00 in0.0 mm
03:35 AM 47.7°F8.7°C 27.9°F-2.3°C 46% Calm Calm -- 29.73 in1006.8 mb 0.00 in0.0 mm 0.00 in/hr0.0 mm/hr 0.00 in0.0 mm
03:30 AM 47.7°F8.7°C 27.9°F-2.3°C 46% Calm Calm -- 29.73 in1006.8 mb 0.00 in0.0 mm 0.00 in/hr0.0 mm/hr 0.00 in0.0 mm
03:25 AM 47.7°F8.7°C 27.9°F-2.3°C 46% Calm Calm -- 29.73 in1006.8 mb 0.00 in0.0 mm 0.00 in/hr0.0 mm/hr 0.00 in0.0 mm
03:20 AM 47.8°F8.8°C 28.6°F-1.9°C 47% Calm Calm -- 29.73 in1006.8 mb 0.00 in0.0 mm 0.00 in/hr0.0 mm/hr 0.00 in0.0 mm
03:15 AM 47.9°F8.8°C 28.7°F-1.8°C 47% Calm Calm -- 29.73 in1006.8 mb 0.00 in0.0 mm 0.00 in/hr0.0 mm/hr 0.00 in0.0 mm
03:10 AM 47.9°F8.8°C 28.1°F-2.2°C 46% Calm Calm -- 29.73 in1006.8 mb 0.00 in0.0 mm 0.00 in/hr0.0 mm/hr 0.00 in0.0 mm
03:05 AM 47.9°F8.8°C 28.1°F-2.2°C 46% Calm Calm -- 29.74 in1007.1 mb 0.00 in0.0 mm 0.00 in/hr0.0 mm/hr 0.00 in0.0 mm
03:00 AM 47.9°F8.8°C 28.1°F-2.2°C 46% Calm Calm -- 29.74 in1007.1 mb 0.00 in0.0 mm 0.00 in/hr0.0 mm/hr 0.00 in0.0 mm
02:55 AM 47.9°F8.8°C 28.7°F-1.8°C 47% Calm Calm -- 29.74 in1007.1 mb 0.00 in0.0 mm 0.00 in/hr0.0 mm/hr 0.00 in0.0 mm
02:50 AM 47.8°F8.8°C 28.6°F-1.9°C 47% Calm Calm -- 29.74 in1007.1 mb 0.00 in0.0 mm 0.00 in/hr0.0 mm/hr 0.00 in0.0 mm
02:45 AM 47.8°F8.8°C 28.0°F-2.2°C 46% Calm Calm -- 29.74 in1007.1 mb 0.00 in0.0 mm 0.00 in/hr0.0 mm/hr 0.00 in0.0 mm
02:40 AM 47.9°F8.8°C 28.1°F-2.2°C 46% Calm Calm -- 29.74 in1007.1 mb 0.00 in0.0 mm 0.00 in/hr0.0 mm/hr 0.00 in0.0 mm
02:35 AM 48.0°F8.9°C 28.2°F-2.1°C 46% Calm Calm -- 29.74 in1007.1 mb 0.00 in0.0 mm 0.00 in/hr0.0 mm/hr 0.00 in0.0 mm
02:30 AM 48.1°F8.9°C 28.8°F-1.8°C 47% Calm Calm -- 29.74 in1007.1 mb 0.00 in0.0 mm 0.00 in/hr0.0 mm/hr 0.00 in0.0 mm
02:25 AM 48.2°F9.0°C 28.9°F-1.7°C 47% Calm Calm -- 29.74 in1007.1 mb 0.00 in0.0 mm 0.00 in/hr0.0 mm/hr 0.00 in0.0 mm
02:20 AM 48.3°F9.1°C 28.5°F-1.9°C 46% Calm Calm -- 29.74 in1007.1 mb 0.00 in0.0 mm 0.00 in/hr0.0 mm/hr 0.00 in0.0 mm
02:15 AM 48.4°F9.1°C 28.6°F-1.9°C 46% Calm Calm -- 29.74 in1007.1 mb 0.00 in0.0 mm 0.00 in/hr0.0 mm/hr 0.00 in0.0 mm
02:10 AM 48.5°F9.2°C 28.7°F-1.8°C 46% Calm Calm -- 29.74 in1007.1 mb 0.00 in0.0 mm 0.00 in/hr0.0 mm/hr 0.00 in0.0 mm
02:05 AM 48.6°F9.2°C 28.8°F-1.8°C 46% Calm Calm -- 29.74 in1007.1 mb 0.00 in0.0 mm 0.00 in/hr0.0 mm/hr 0.00 in0.0 mm
02:00 AM 48.7°F9.3°C 28.9°F-1.7°C 46% Calm Calm -- 29.75 in1007.5 mb 0.00 in0.0 mm 0.00 in/hr0.0 mm/hr 0.00 in0.0 mm
01:55 AM 48.8°F9.3°C 28.4°F-2.0°C 45% Calm Calm -- 29.75 in1007.5 mb 0.00 in0.0 mm 0.00 in/hr0.0 mm/hr 0.00 in0.0 mm
01:50 AM 49.0°F9.4°C 28.6°F-1.9°C 45% Calm Calm -- 29.75 in1007.5 mb 0.00 in0.0 mm 0.00 in/hr0.0 mm/hr 0.00 in0.0 mm
01:45 AM 49.0°F9.4°C 28.6°F-1.9°C 45% Calm Calm -- 29.75 in1007.5 mb 0.00 in0.0 mm 0.00 in/hr0.0 mm/hr 0.00 in0.0 mm
01:40 AM 49.1°F9.5°C 28.7°F-1.8°C 45% Calm Calm -- 29.75 in1007.5 mb 0.00 in0.0 mm 0.00 in/hr0.0 mm/hr 0.00 in0.0 mm
01:35 AM 49.2°F9.6°C 28.8°F-1.8°C 45% Calm Calm -- 29.75 in1007.5 mb 0.00 in0.0 mm 0.00 in/hr0.0 mm/hr 0.00 in0.0 mm
01:30 AM 49.2°F9.6°C 28.8°F-1.8°C 45% Calm Calm -- 29.75 in1007.5 mb 0.00 in0.0 mm 0.00 in/hr0.0 mm/hr 0.00 in0.0 mm
01:25 AM 49.2°F9.6°C 28.8°F-1.8°C 45% Calm Calm -- 29.75 in1007.5 mb 0.00 in0.0 mm 0.00 in/hr0.0 mm/hr 0.00 in0.0 mm
01:20 AM 49.2°F9.6°C 29.3°F-1.5°C 46% Calm Calm -- 29.75 in1007.5 mb 0.00 in0.0 mm 0.00 in/hr0.0 mm/hr 0.00 in0.0 mm
01:15 AM 49.2°F9.6°C 29.3°F-1.5°C 46% Calm Calm -- 29.75 in1007.5 mb 0.00 in0.0 mm 0.00 in/hr0.0 mm/hr 0.00 in0.0 mm
01:10 AM 49.1°F9.5°C 28.7°F-1.8°C 45% Calm Calm -- 29.75 in1007.5 mb 0.00 in0.0 mm 0.00 in/hr0.0 mm/hr 0.00 in0.0 mm
01:05 AM 49.0°F9.4°C 28.6°F-1.9°C 45% Calm Calm -- 29.75 in1007.5 mb 0.00 in0.0 mm 0.00 in/hr0.0 mm/hr 0.00 in0.0 mm
01:00 AM 49.0°F9.4°C 28.6°F-1.9°C 45% Calm Calm -- 29.75 in1007.5 mb 0.00 in0.0 mm 0.00 in/hr0.0 mm/hr 0.00 in0.0 mm
12:55 AM 49.0°F9.4°C 29.1°F-1.6°C 46% Calm Calm -- 29.75 in1007.5 mb 0.00 in0.0 mm 0.00 in/hr0.0 mm/hr 0.00 in0.0 mm
12:50 AM 49.1°F9.5°C 29.2°F-1.6°C 46% Calm Calm -- 29.75 in1007.5 mb 0.00 in0.0 mm 0.00 in/hr0.0 mm/hr 0.00 in0.0 mm
12:45 AM 49.2°F9.6°C 29.3°F-1.5°C 46% Calm Calm -- 29.75 in1007.5 mb 0.00 in0.0 mm 0.00 in/hr0.0 mm/hr 0.00 in0.0 mm
12:40 AM 49.3°F9.6°C 29.4°F-1.4°C 46% Calm Calm -- 29.75 in1007.5 mb 0.00 in0.0 mm 0.00 in/hr0.0 mm/hr 0.00 in0.0 mm
12:35 AM 49.6°F9.8°C 29.7°F-1.3°C 46% Calm Calm -- 29.75 in1007.5 mb 0.00 in0.0 mm 0.00 in/hr0.0 mm/hr 0.00 in0.0 mm
12:30 AM 50.0°F10.0°C 29.5°F-1.4°C 45% Calm Calm -- 29.75 in1007.5 mb 0.00 in0.0 mm 0.00 in/hr0.0 mm/hr 0.00 in0.0 mm
12:25 AM 50.3°F10.2°C 29.2°F-1.6°C 44% Calm Calm -- 29.75 in1007.5 mb 0.00 in0.0 mm 0.00 in/hr0.0 mm/hr 0.00 in0.0 mm
12:20 AM 50.5°F10.3°C 29.4°F-1.4°C 44% Calm Calm -- 29.75 in1007.5 mb 0.00 in0.0 mm 0.00 in/hr0.0 mm/hr 0.00 in0.0 mm
12:15 AM 50.8°F10.4°C 29.1°F-1.6°C 43% Calm Calm -- 29.75 in1007.5 mb 0.00 in0.0 mm 0.00 in/hr0.0 mm/hr 0.00 in0.0 mm
12:10 AM 51.0°F10.6°C 29.3°F-1.5°C 43% Calm Calm -- 29.75 in1007.5 mb 0.00 in0.0 mm 0.00 in/hr0.0 mm/hr 0.00 in0.0 mm
12:05 AM 51.1°F10.6°C 29.4°F-1.4°C 43% Calm Calm -- 29.75 in1007.5 mb 0.00 in0.0 mm 0.00 in/hr0.0 mm/hr 0.00 in0.0 mm
12:00 AM 51.2°F10.7°C 28.9°F-1.7°C 42% Calm Calm -- 29.75 in1007.5 mb 0.00 in0.0 mm 0.00 in/hr0.0 mm/hr 0.00 in0.0 mm